Norwegian Sun — C6RN3 — position and weather

sailwx.info

Track history (hours):
 
Tides and Currents Weather Stations Pressure Air Temp Water Temp Dewpoint Dewpoint Depression Visibility Wind Speed Wind Dir Waves Ship Positions

Norwegian Sun

Operator: Norwegian Cruise Line

Last reported at 2017-Oct-07 07:45 UTC. Time now 2017-Oct-18 09:13 UTC.
Position N 29°21' W 116°52'.
Warning: this ship's position is 11 days out of date.

Type: Passenger vessel. MMSI: 311109000.

Date/timePositionNaut miles runAvg speedWind from/ knotsBaromVisibWave heightAir tempDewpointWater temp
2017-Oct-07 07:45N 29°21' W 116°52'520.3
2017-Oct-07 07:30N 29°24' W 116°56'6120.0
2017-Oct-07 04:28N 30°11' W 117°40'1120.0
2017-Oct-07 03:56N 30°20' W 117°47'920.0
2017-Oct-07 03:29N 30°27' W 117°54'1020.0
2017-Oct-07 03:00N 30°35' W 118°00'1020.0
2017-Oct-07 02:30N 30°43' W 118°08'1020.0
2017-Oct-07 02:00N 30°51' W 118°15'1020.0
2017-Oct-07 01:30N 30°59' W 118°22'1019.5
2017-Oct-07 01:00N 31°06' W 118°29'1020.1
2017-Oct-07 00:30N 31°14' W 118°36'1020.1
2017-Oct-07 00:00N 31°22' W 118°43'1020.4
2017-Oct-06 23:30N 31°30' W 118°50'1020.6
2017-Oct-06 23:01N 31°39' W 118°57'1020.5
2017-Oct-06 22:30N 31°47' W 119°05'1020.5
2017-Oct-06 22:00N 31°55' W 119°12'1020.5
2017-Oct-06 21:30N 32°03' W 119°19'1020.2
2017-Oct-06 21:00N 32°11' W 119°26'1020.3
2017-Oct-06 20:30N 32°19' W 119°34'1020.6
2017-Oct-06 20:00N 32°27' W 119°41'1020.6
2017-Oct-06 19:30N 32°36' W 119°49'1020.3
2017-Oct-06 19:00N 32°44' W 119°56'1020.0
2017-Oct-06 18:30N 32°52' W 120°03'1020.4
2017-Oct-06 18:00N 32°60' W 120°10'1019.9
2017-Oct-06 17:30N 33°08' W 120°17'1020.2
2017-Oct-06 17:00N 33°16' W 120°25'1019.8
2017-Oct-06 16:30N 33°24' W 120°32'1020.3
2017-Oct-06 16:00N 33°32' W 120°39'1020.2
2017-Oct-06 15:30N 33°40' W 120°47'1019.9
2017-Oct-06 15:00N 33°48' W 120°54'1020.0
2017-Oct-06 14:30N 33°57' W 120°59'1020.4
2017-Oct-06 14:00N 34°06' W 121°05'1020.5
2017-Oct-06 13:30N 34°15' W 121°10'1020.6
2017-Oct-06 13:00N 34°24' W 121°16'1020.3
2017-Oct-06 12:30N 34°33' W 121°21'1020.5
2017-Oct-06 12:00N 34°43' W 121°26'1020.7
2017-Oct-06 11:30N 34°52' W 121°32'1020.8
2017-Oct-06 11:00N 35°01' W 121°38'1020.5
2017-Oct-06 10:30N 35°10' W 121°43'1020.0
2017-Oct-06 10:00N 35°19' W 121°49'1020.6
2017-Oct-06 09:30N 35°28' W 121°55'1020.3
2017-Oct-06 09:00N 35°38' W 122°00'1020.3
2017-Oct-06 08:30N 35°47' W 122°05'1020.3
2017-Oct-06 08:00N 35°57' W 122°09'1020.1
2017-Oct-06 07:30N 36°06' W 122°13'1020.3
2017-Oct-06 07:00N 36°15' W 122°18'1020.2
2017-Oct-06 06:30N 36°25' W 122°23'1019.8
2017-Oct-06 06:00N 36°34' W 122°28'1020.0
2017-Oct-06 05:30N 36°43' W 122°31'1020.2
2017-Oct-06 05:00N 36°53' W 122°35'1020.0
2017-Oct-06 04:30N 37°02' W 122°40'1019.8
2017-Oct-06 04:00N 37°12' W 122°43'1020.6
2017-Oct-06 03:30N 37°22' W 122°44'1020.2
2017-Oct-06 03:00N 37°32' W 122°44'918.8
2017-Oct-06 02:30N 37°41' W 122°43'612.9
2017-Oct-06 02:00N 37°46' W 122°37'714.9
2017-Oct-06 01:31N 37°49' W 122°29'4 6.6
2017-Oct-06 00:58N 37°48' W 122°24'0 0.0
2017-Oct-06 00:28N 37°48' W 122°24'0 0.0
2017-Oct-05 23:58N 37°48' W 122°24'0 0.0
2017-Oct-05 23:28N 37°48' W 122°24'0 0.0
2017-Oct-05 22:59N 37°48' W 122°24'0 0.0
2017-Oct-05 22:28N 37°48' W 122°24'0 0.0
2017-Oct-05 21:58N 37°48' W 122°24'0 0.0
2017-Oct-05 21:28N 37°48' W 122°24'0 0.0
2017-Oct-05 20:58N 37°48' W 122°24'0 0.0
2017-Oct-05 20:28N 37°48' W 122°24'0 0.0
2017-Oct-05 19:58N 37°48' W 122°24'0 0.0
2017-Oct-05 19:29N 37°48' W 122°24'0 0.0
2017-Oct-05 18:58N 37°48' W 122°24'0 0.0
2017-Oct-05 18:28N 37°48' W 122°24'0 0.0
2017-Oct-05 17:54N 37°48' W 122°24'0 0.0
2017-Oct-05 17:30N 37°48' W 122°24'0 0.0
2017-Oct-05 17:00N 37°48' W 122°24'0 0.0
2017-Oct-05 15:30N 37°48' W 122°24'0 0.0
2017-Oct-05 15:00N 37°48' W 122°24'0 0.0
2017-Oct-05 14:31N 37°48' W 122°24'0 0.3
2017-Oct-05 14:00N 37°49' W 122°24'2 3.8
2017-Oct-05 13:30N 37°49' W 122°27'611.8
2017-Oct-05 13:00N 37°47' W 122°34'612.3
2017-Oct-05 12:30N 37°46' W 122°41'5 9.1
2017-Oct-05 12:01N 37°47' W 122°47'611.3
2017-Oct-05 11:31N 37°49' W 122°53'510.1
2017-Oct-05 11:00N 37°52' W 122°59'5 9.8
2017-Oct-05 10:31N 37°54' W 123°04'5 9.7
2017-Oct-05 10:01N 37°57' W 123°10'5 9.7
2017-Oct-05 09:31N 38°00' W 123°14'5 9.8
2017-Oct-05 09:01N 38°04' W 123°18'510.1
2017-Oct-05 08:30N 38°08' W 123°22'510.7
2017-Oct-05 08:00N 38°11' W 123°28'1121.4
2017-Oct-05 07:30N 38°14' W 123°41'1122.5
2017-Oct-05 07:00N 38°22' W 123°51'1223.0
2017-Oct-05 06:30N 38°30' W 124°01'1020.7
2017-Oct-05 06:00N 38°38' W 124°10'815.5
2017-Oct-05 05:30N 38°44' W 124°16'815.1
2017-Oct-05 05:00N 38°51' W 124°19'714.6
2017-Oct-05 04:30N 38°58' W 124°23'714.4
2017-Oct-05 04:00N 39°05' W 124°26'714.3
2017-Oct-05 03:30N 39°12' W 124°29'714.0
2017-Oct-05 03:00N 39°18' W 124°32'713.4
2017-Oct-05 02:30N 39°25' W 124°35'714.3
2017-Oct-05 02:00N 39°31' W 124°38'814.7
2017-Oct-05 01:28N 39°39' W 124°42'714.6
2017-Oct-05 01:00N 39°45' W 124°45'816.7
2017-Oct-05 00:30N 39°53' W 124°48'1118.3
2017-Oct-04 23:55N 40°03' W 124°53'21417.9
2017-Oct-04 11:56N 43°35' W 125°39'817.8
2017-Oct-04 11:30N 43°42' W 125°37'918.0
2017-Oct-04 11:00N 43°51' W 125°34'918.4
2017-Oct-04 10:30N 43°60' W 125°31'918.5
2017-Oct-04 10:00N 44°09' W 125°28'918.4
2017-Oct-04 09:30N 44°18' W 125°25'918.2
2017-Oct-04 09:00N 44°26' W 125°22'2018.4
2017-Oct-04 07:55N 44°45' W 125°11'1218.3
2017-Oct-04 07:15N 44°56' W 125°03'418.3
2017-Oct-04 07:00N 44°60' W 125°00'918.4
2017-Oct-04 06:30N 45°08' W 124°55'918.6
2017-Oct-04 06:00N 45°16' W 124°49'918.6
2017-Oct-04 05:31N 45°25' W 124°43'1019.1
2017-Oct-04 05:01N 45°33' W 124°37'1019.0
2017-Oct-04 04:31N 45°42' W 124°31'1918.7
2017-Oct-04 03:28N 45°59' W 124°19'918.8
2017-Oct-04 03:01N 46°07' W 124°13'815.8
2017-Oct-04 02:30N 46°14' W 124°07'612.8
2017-Oct-04 02:01N 46°13' W 123°58'510.2
2017-Oct-04 01:31N 46°11' W 123°51'0 0.0
2017-Oct-04 00:54N 46°11' W 123°51'0 0.0
2017-Oct-04 00:30N 46°11' W 123°51'0 0.0
2017-Oct-04 00:00N 46°11' W 123°51'0 0.0
2017-Oct-03 23:30N 46°11' W 123°51'0 0.0
2017-Oct-03 23:00N 46°11' W 123°51'0 0.0
2017-Oct-03 22:12N 46°11' W 123°51'0 0.0
2017-Oct-03 22:00N 46°11' W 123°51'0 0.0
2017-Oct-03 21:30N 46°11' W 123°51'0 0.0
2017-Oct-03 21:00N 46°11' W 123°51'0 0.0
2017-Oct-03 20:30N 46°11' W 123°51'0 0.0
2017-Oct-03 20:00N 46°11' W 123°51'0 0.0
2017-Oct-03 19:30N 46°11' W 123°51'0 0.0
2017-Oct-03 19:00N 46°11' W 123°51'0 0.0
2017-Oct-03 18:30N 46°11' W 123°51'0 0.0
2017-Oct-03 18:00N 46°11' W 123°51'0 0.0
2017-Oct-03 17:30N 46°11' W 123°51'0 0.0
2017-Oct-03 17:00N 46°11' W 123°51'0 0.0
2017-Oct-03 16:30N 46°11' W 123°51'0 0.0
2017-Oct-03 16:00N 46°11' W 123°51'0 0.0
2017-Oct-03 15:30N 46°11' W 123°51'0 0.3
2017-Oct-03 15:00N 46°11' W 123°52'1110.9
2017-Oct-03 14:00N 46°14' W 124°07'611.6
2017-Oct-03 13:30N 46°13' W 124°15'816.9
2017-Oct-03 13:01N 46°19' W 124°23'1020.1
2017-Oct-03 12:30N 46°27' W 124°32'1019.7
2017-Oct-03 12:00N 46°34' W 124°42'917.6
2017-Oct-03 11:30N 46°40' W 124°51'917.7
2017-Oct-03 11:00N 46°47' W 124°59'918.0
2017-Oct-03 10:30N 46°54' W 125°07'918.1
2017-Oct-03 10:00N 47°01' W 125°16'918.0
2017-Oct-03 09:30N 47°10' W 125°20'918.1
2017-Oct-03 09:00N 47°19' W 125°22'918.6
2017-Oct-03 08:30N 47°28' W 125°23'918.7
2017-Oct-03 08:00N 47°37' W 125°24'1318.6
2017-Oct-03 07:20N 47°50' W 125°24'618.9
2017-Oct-03 07:00N 47°56' W 125°22'918.1
2017-Oct-03 06:29N 48°05' W 125°18'917.7
2017-Oct-03 06:00N 48°13' W 125°12'917.6
2017-Oct-03 05:28N 48°22' W 125°09'817.7
2017-Oct-03 05:00N 48°29' W 125°03'816.9
2017-Oct-03 04:30N 48°31' W 124°51'918.7
2017-Oct-03 04:00N 48°29' W 124°37'1019.1
2017-Oct-03 03:30N 48°25' W 124°24'1121.2
2017-Oct-03 03:00N 48°21' W 124°09'1120.9
2017-Oct-03 02:30N 48°17' W 123°54'1121.1
2017-Oct-03 02:00N 48°16' W 123°39'918.8
2017-Oct-03 01:30N 48°20' W 123°27'510.1
2017-Oct-03 01:00N 48°25' W 123°24'0 0.2
2017-Oct-03 00:29N 48°25' W 123°23'0 0.0
2017-Oct-02 23:59N 48°25' W 123°23'0 0.0
2017-Oct-02 23:29N 48°25' W 123°23'0 0.0
2017-Oct-02 22:59N 48°25' W 123°23'0 0.0
2017-Oct-02 22:29N 48°25' W 123°23'0 0.0
2017-Oct-02 21:59N 48°25' W 123°23'0 0.0
2017-Oct-02 21:29N 48°25' W 123°23'0 0.0
2017-Oct-02 20:59N 48°25' W 123°23'0 0.0
2017-Oct-02 20:29N 48°25' W 123°23'0 0.0
2017-Oct-02 19:59N 48°25' W 123°23'0 0.0
2017-Oct-02 19:29N 48°25' W 123°23'0 0.0
2017-Oct-02 18:59N 48°25' W 123°23'0 0.0
2017-Oct-02 18:29N 48°25' W 123°23'0 0.0
2017-Oct-02 17:59N 48°25' W 123°23'0 0.0
2017-Oct-02 17:29N 48°25' W 123°23'0 0.0
2017-Oct-02 16:59N 48°25' W 123°23'0 0.0
2017-Oct-02 16:29N 48°25' W 123°23'0 0.0
2017-Oct-02 15:59N 48°25' W 123°23'0 0.0
2017-Oct-02 15:29N 48°25' W 123°23'0 0.0
2017-Oct-02 15:00N 48°25' W 123°23'1 2.0
2017-Oct-02 14:30N 48°25' W 123°25'510.6
2017-Oct-02 14:00N 48°19' W 123°25'713.3
2017-Oct-02 13:30N 48°13' W 123°30'713.2
2017-Oct-02 13:00N 48°13' W 123°40'612.9
2017-Oct-02 12:30N 48°13' W 123°49'712.6
2017-Oct-02 11:59N 48°15' W 123°59'612.9
2017-Oct-02 11:30N 48°17' W 124°08'613.1
2017-Oct-02 11:00N 48°20' W 124°16'713.4
2017-Oct-02 10:30N 48°23' W 124°25'713.5
2017-Oct-02 10:00N 48°26' W 124°35'713.2
2017-Oct-02 09:30N 48°28' W 124°44'713.8
2017-Oct-02 09:00N 48°29' W 124°54'714.4
2017-Oct-02 08:30N 48°29' W 125°05'714.2
2017-Oct-02 08:00N 48°30' W 125°15'714.0
2017-Oct-02 07:30N 48°33' W 125°25'714.0
2017-Oct-02 07:00N 48°36' W 125°35'714.4
2017-Oct-02 06:30N 48°40' W 125°43'612.9
2017-Oct-02 06:01N 48°44' W 125°51'713.7
2017-Oct-02 05:31N 48°48' W 126°00'714.1
2017-Oct-02 05:01N 48°52' W 126°09'714.5
2017-Oct-02 04:31N 48°57' W 126°17'917.0
2017-Oct-02 04:01N 49°01' W 126°28'918.2
2017-Oct-02 03:30N 49°07' W 126°39'918.3
2017-Oct-02 03:01N 49°12' W 126°50'918.2
2017-Oct-02 02:31N 49°18' W 127°01'918.3
2017-Oct-02 02:01N 49°24' W 127°12'918.0
2017-Oct-02 01:30N 49°29' W 127°23'5716.1
2017-Oct-01 22:00N 50°06' W 128°30'974.8 310 / 321029.0 5.4 14.012.314.0
2017-Oct-01 21:52N 50°13' W 128°40'19818.0
2017-Oct-01 10:53N 53°12' W 130°54'1519.1
2017-Oct-01 10:06N 53°27' W 131°00'219.1
2017-Oct-01 10:00N 53°29' W 131°01'6869.2
2017-Oct-01 10:00N 53°24' W 130°54'1530.5 300 / 201027.0 11.0 7.213.0
2017-Oct-01 09:30N 53°38' W 131°02'918.7
2017-Oct-01 09:01N 53°47' W 131°03'918.8
2017-Oct-01 08:30N 53°57' W 131°03'918.8
2017-Oct-01 08:00N 54°06' W 131°04'918.7
2017-Oct-01 07:30N 54°15' W 131°04'918.6
2017-Oct-01 07:00N 54°24' W 131°09'918.7
2017-Oct-01 06:30N 54°33' W 131°15'916.9
2017-Oct-01 06:00N 54°41' W 131°12'917.7
2017-Oct-01 05:30N 54°49' W 131°05'5 9.5
2017-Oct-01 05:00N 54°54' W 131°06'118 6.2 280 / 41023.010.8 12.010.212.0
2017-Sep-30 10:00N 56°12' W 133°42'13414.5 290 / 51016.0 9.0 9.013.0
2017-Sep-30 00:45N 58°13' W 135°28'518.0
2017-Sep-30 00:28N 58°15' W 135°37'818.1
2017-Sep-30 00:00N 58°19' W 135°51'715.0
2017-Sep-29 23:30N 58°25' W 135°58'713.2
2017-Sep-29 23:00N 58°31' W 136°04'1020.4
2017-Sep-29 22:30N 58°41' W 136°06'1019.2
2017-Sep-29 22:00N 58°46' W 136°22'6 1.0
2017-Sep-29 16:08N 58°43' W 136°14'320.4
2017-Sep-29 15:59N 58°40' W 136°09'919.4
2017-Sep-29 15:30N 58°32' W 136°04'815.5
2017-Sep-29 15:00N 58°24' W 135°58'611.6
2017-Sep-29 14:31N 58°19' W 135°53'510.5
2017-Sep-29 14:00N 58°18' W 135°43'510.6
2017-Sep-29 13:30N 58°16' W 135°34'510.6
2017-Sep-29 13:01N 58°14' W 135°24'510.6
2017-Sep-29 12:30N 58°12' W 135°15'814.7
2017-Sep-29 12:00N 58°06' W 135°06'6010.1 010 / 21010.0 5.4 9.0 9.012.0
2017-Sep-29 06:00N 59°06' W 135°18'193 4.6 010 / 111011.010.8 9.0 7.110.0
2017-Sep-27 12:00N 55°54' W 134°42'3115.4 140 / 351015.0 13.011.315.0
2017-Sep-27 10:00N 55°24' W 134°30'   140 / 331015.0 2.2 13.011.315.0
Track history (hours):
 
Tides and Currents Weather Stations Pressure Air Temp Water Temp Dewpoint Dewpoint Depression Visibility Wind Speed Wind Dir Waves Ship Positions

Norwegian Sun

Operator: Norwegian Cruise Line

Last reported at 2017-Oct-07 07:45 UTC. Time now 2017-Oct-18 09:13 UTC.
Position N 29°21' W 116°52'.
Warning: this ship's position is 11 days out of date.

Type: Passenger vessel. MMSI: 311109000.

Date/timePositionNaut miles runAvg speedWind from/ knotsBaromVisibWave heightAir tempDewpointWater temp
2017-Oct-07 07:45N 29°21' W 116°52'520.3
2017-Oct-07 07:30N 29°24' W 116°56'6120.0
2017-Oct-07 04:28N 30°11' W 117°40'1120.0
2017-Oct-07 03:56N 30°20' W 117°47'920.0
2017-Oct-07 03:29N 30°27' W 117°54'1020.0
2017-Oct-07 03:00N 30°35' W 118°00'1020.0
2017-Oct-07 02:30N 30°43' W 118°08'1020.0
2017-Oct-07 02:00N 30°51' W 118°15'1020.0
2017-Oct-07 01:30N 30°59' W 118°22'1019.5
2017-Oct-07 01:00N 31°06' W 118°29'1020.1
2017-Oct-07 00:30N 31°14' W 118°36'1020.1
2017-Oct-07 00:00N 31°22' W 118°43'1020.4
2017-Oct-06 23:30N 31°30' W 118°50'1020.6
2017-Oct-06 23:01N 31°39' W 118°57'1020.5
2017-Oct-06 22:30N 31°47' W 119°05'1020.5
2017-Oct-06 22:00N 31°55' W 119°12'1020.5
2017-Oct-06 21:30N 32°03' W 119°19'1020.2
2017-Oct-06 21:00N 32°11' W 119°26'1020.3
2017-Oct-06 20:30N 32°19' W 119°34'1020.6
2017-Oct-06 20:00N 32°27' W 119°41'1020.6
2017-Oct-06 19:30N 32°36' W 119°49'1020.3
2017-Oct-06 19:00N 32°44' W 119°56'1020.0
2017-Oct-06 18:30N 32°52' W 120°03'1020.4
2017-Oct-06 18:00N 32°60' W 120°10'1019.9
2017-Oct-06 17:30N 33°08' W 120°17'1020.2
2017-Oct-06 17:00N 33°16' W 120°25'1019.8
2017-Oct-06 16:30N 33°24' W 120°32'1020.3
2017-Oct-06 16:00N 33°32' W 120°39'1020.2
2017-Oct-06 15:30N 33°40' W 120°47'1019.9
2017-Oct-06 15:00N 33°48' W 120°54'1020.0
2017-Oct-06 14:30N 33°57' W 120°59'1020.4
2017-Oct-06 14:00N 34°06' W 121°05'1020.5
2017-Oct-06 13:30N 34°15' W 121°10'1020.6
2017-Oct-06 13:00N 34°24' W 121°16'1020.3
2017-Oct-06 12:30N 34°33' W 121°21'1020.5
2017-Oct-06 12:00N 34°43' W 121°26'1020.7
2017-Oct-06 11:30N 34°52' W 121°32'1020.8
2017-Oct-06 11:00N 35°01' W 121°38'1020.5
2017-Oct-06 10:30N 35°10' W 121°43'1020.0
2017-Oct-06 10:00N 35°19' W 121°49'1020.6
2017-Oct-06 09:30N 35°28' W 121°55'1020.3
2017-Oct-06 09:00N 35°38' W 122°00'1020.3
2017-Oct-06 08:30N 35°47' W 122°05'1020.3
2017-Oct-06 08:00N 35°57' W 122°09'1020.1
2017-Oct-06 07:30N 36°06' W 122°13'1020.3
2017-Oct-06 07:00N 36°15' W 122°18'1020.2
2017-Oct-06 06:30N 36°25' W 122°23'1019.8
2017-Oct-06 06:00N 36°34' W 122°28'1020.0
2017-Oct-06 05:30N 36°43' W 122°31'1020.2
2017-Oct-06 05:00N 36°53' W 122°35'1020.0
2017-Oct-06 04:30N 37°02' W 122°40'1019.8
2017-Oct-06 04:00N 37°12' W 122°43'1020.6
2017-Oct-06 03:30N 37°22' W 122°44'1020.2
2017-Oct-06 03:00N 37°32' W 122°44'918.8
2017-Oct-06 02:30N 37°41' W 122°43'612.9
2017-Oct-06 02:00N 37°46' W 122°37'714.9
2017-Oct-06 01:31N 37°49' W 122°29'4 6.6
2017-Oct-06 00:58N 37°48' W 122°24'0 0.0
2017-Oct-06 00:28N 37°48' W 122°24'0 0.0
2017-Oct-05 23:58N 37°48' W 122°24'0 0.0
2017-Oct-05 23:28N 37°48' W 122°24'0 0.0
2017-Oct-05 22:59N 37°48' W 122°24'0 0.0
2017-Oct-05 22:28N 37°48' W 122°24'0 0.0
2017-Oct-05 21:58N 37°48' W 122°24'0 0.0
2017-Oct-05 21:28N 37°48' W 122°24'0 0.0
2017-Oct-05 20:58N 37°48' W 122°24'0 0.0
2017-Oct-05 20:28N 37°48' W 122°24'0 0.0
2017-Oct-05 19:58N 37°48' W 122°24'0 0.0
2017-Oct-05 19:29N 37°48' W 122°24'0 0.0
2017-Oct-05 18:58N 37°48' W 122°24'0 0.0
2017-Oct-05 18:28N 37°48' W 122°24'0 0.0
2017-Oct-05 17:54N 37°48' W 122°24'0 0.0
2017-Oct-05 17:30N 37°48' W 122°24'0 0.0
2017-Oct-05 17:00N 37°48' W 122°24'0 0.0
2017-Oct-05 15:30N 37°48' W 122°24'0 0.0
2017-Oct-05 15:00N 37°48' W 122°24'0 0.0
2017-Oct-05 14:31N 37°48' W 122°24'0 0.3
2017-Oct-05 14:00N 37°49' W 122°24'2 3.8
2017-Oct-05 13:30N 37°49' W 122°27'611.8
2017-Oct-05 13:00N 37°47' W 122°34'612.3
2017-Oct-05 12:30N 37°46' W 122°41'5 9.1
2017-Oct-05 12:01N 37°47' W 122°47'611.3
2017-Oct-05 11:31N 37°49' W 122°53'510.1
2017-Oct-05 11:00N 37°52' W 122°59'5 9.8
2017-Oct-05 10:31N 37°54' W 123°04'5 9.7
2017-Oct-05 10:01N 37°57' W 123°10'5 9.7
2017-Oct-05 09:31N 38°00' W 123°14'5 9.8
2017-Oct-05 09:01N 38°04' W 123°18'510.1
2017-Oct-05 08:30N 38°08' W 123°22'510.7
2017-Oct-05 08:00N 38°11' W 123°28'1121.4
2017-Oct-05 07:30N 38°14' W 123°41'1122.5
2017-Oct-05 07:00N 38°22' W 123°51'1223.0
2017-Oct-05 06:30N 38°30' W 124°01'1020.7
2017-Oct-05 06:00N 38°38' W 124°10'815.5
2017-Oct-05 05:30N 38°44' W 124°16'815.1
2017-Oct-05 05:00N 38°51' W 124°19'714.6
2017-Oct-05 04:30N 38°58' W 124°23'714.4
2017-Oct-05 04:00N 39°05' W 124°26'714.3
2017-Oct-05 03:30N 39°12' W 124°29'714.0
2017-Oct-05 03:00N 39°18' W 124°32'713.4
2017-Oct-05 02:30N 39°25' W 124°35'714.3
2017-Oct-05 02:00N 39°31' W 124°38'814.7
2017-Oct-05 01:28N 39°39' W 124°42'714.6
2017-Oct-05 01:00N 39°45' W 124°45'816.7
2017-Oct-05 00:30N 39°53' W 124°48'1118.3
2017-Oct-04 23:55N 40°03' W 124°53'21417.9
2017-Oct-04 11:56N 43°35' W 125°39'817.8
2017-Oct-04 11:30N 43°42' W 125°37'918.0
2017-Oct-04 11:00N 43°51' W 125°34'918.4
2017-Oct-04 10:30N 43°60' W 125°31'918.5
2017-Oct-04 10:00N 44°09' W 125°28'918.4
2017-Oct-04 09:30N 44°18' W 125°25'918.2
2017-Oct-04 09:00N 44°26' W 125°22'2018.4
2017-Oct-04 07:55N 44°45' W 125°11'1218.3
2017-Oct-04 07:15N 44°56' W 125°03'418.3
2017-Oct-04 07:00N 44°60' W 125°00'918.4
2017-Oct-04 06:30N 45°08' W 124°55'918.6
2017-Oct-04 06:00N 45°16' W 124°49'918.6
2017-Oct-04 05:31N 45°25' W 124°43'1019.1
2017-Oct-04 05:01N 45°33' W 124°37'1019.0
2017-Oct-04 04:31N 45°42' W 124°31'1918.7
2017-Oct-04 03:28N 45°59' W 124°19'918.8
2017-Oct-04 03:01N 46°07' W 124°13'815.8
2017-Oct-04 02:30N 46°14' W 124°07'612.8
2017-Oct-04 02:01N 46°13' W 123°58'510.2
2017-Oct-04 01:31N 46°11' W 123°51'0 0.0
2017-Oct-04 00:54N 46°11' W 123°51'0 0.0
2017-Oct-04 00:30N 46°11' W 123°51'0 0.0
2017-Oct-04 00:00N 46°11' W 123°51'0 0.0
2017-Oct-03 23:30N 46°11' W 123°51'0 0.0
2017-Oct-03 23:00N 46°11' W 123°51'0 0.0
2017-Oct-03 22:12N 46°11' W 123°51'0 0.0
2017-Oct-03 22:00N 46°11' W 123°51'0 0.0
2017-Oct-03 21:30N 46°11' W 123°51'0 0.0
2017-Oct-03 21:00N 46°11' W 123°51'0 0.0
2017-Oct-03 20:30N 46°11' W 123°51'0 0.0
2017-Oct-03 20:00N 46°11' W 123°51'0 0.0
2017-Oct-03 19:30N 46°11' W 123°51'0 0.0
2017-Oct-03 19:00N 46°11' W 123°51'0 0.0
2017-Oct-03 18:30N 46°11' W 123°51'0 0.0
2017-Oct-03 18:00N 46°11' W 123°51'0 0.0
2017-Oct-03 17:30N 46°11' W 123°51'0 0.0
2017-Oct-03 17:00N 46°11' W 123°51'0 0.0
2017-Oct-03 16:30N 46°11' W 123°51'0 0.0
2017-Oct-03 16:00N 46°11' W 123°51'0 0.0
2017-Oct-03 15:30N 46°11' W 123°51'0 0.3
2017-Oct-03 15:00N 46°11' W 123°52'1110.9
2017-Oct-03 14:00N 46°14' W 124°07'611.6
2017-Oct-03 13:30N 46°13' W 124°15'816.9
2017-Oct-03 13:01N 46°19' W 124°23'1020.1
2017-Oct-03 12:30N 46°27' W 124°32'1019.7
2017-Oct-03 12:00N 46°34' W 124°42'917.6
2017-Oct-03 11:30N 46°40' W 124°51'917.7
2017-Oct-03 11:00N 46°47' W 124°59'918.0
2017-Oct-03 10:30N 46°54' W 125°07'918.1
2017-Oct-03 10:00N 47°01' W 125°16'918.0
2017-Oct-03 09:30N 47°10' W 125°20'918.1
2017-Oct-03 09:00N 47°19' W 125°22'918.6
2017-Oct-03 08:30N 47°28' W 125°23'918.7
2017-Oct-03 08:00N 47°37' W 125°24'1318.6
2017-Oct-03 07:20N 47°50' W 125°24'618.9
2017-Oct-03 07:00N 47°56' W 125°22'918.1
2017-Oct-03 06:29N 48°05' W 125°18'917.7
2017-Oct-03 06:00N 48°13' W 125°12'917.6
2017-Oct-03 05:28N 48°22' W 125°09'817.7
2017-Oct-03 05:00N 48°29' W 125°03'816.9
2017-Oct-03 04:30N 48°31' W 124°51'918.7
2017-Oct-03 04:00N 48°29' W 124°37'1019.1
2017-Oct-03 03:30N 48°25' W 124°24'1121.2
2017-Oct-03 03:00N 48°21' W 124°09'1120.9
2017-Oct-03 02:30N 48°17' W 123°54'1121.1
2017-Oct-03 02:00N 48°16' W 123°39'918.8
2017-Oct-03 01:30N 48°20' W 123°27'510.1
2017-Oct-03 01:00N 48°25' W 123°24'0 0.2
2017-Oct-03 00:29N 48°25' W 123°23'0 0.0
2017-Oct-02 23:59N 48°25' W 123°23'0 0.0
2017-Oct-02 23:29N 48°25' W 123°23'0 0.0
2017-Oct-02 22:59N 48°25' W 123°23'0 0.0
2017-Oct-02 22:29N 48°25' W 123°23'0 0.0
2017-Oct-02 21:59N 48°25' W 123°23'0 0.0
2017-Oct-02 21:29N 48°25' W 123°23'0 0.0
2017-Oct-02 20:59N 48°25' W 123°23'0 0.0
2017-Oct-02 20:29N 48°25' W 123°23'0 0.0
2017-Oct-02 19:59N 48°25' W 123°23'0 0.0
2017-Oct-02 19:29N 48°25' W 123°23'0 0.0
2017-Oct-02 18:59N 48°25' W 123°23'0 0.0
2017-Oct-02 18:29N 48°25' W 123°23'0 0.0
2017-Oct-02 17:59N 48°25' W 123°23'0 0.0
2017-Oct-02 17:29N 48°25' W 123°23'0 0.0
2017-Oct-02 16:59N 48°25' W 123°23'0 0.0
2017-Oct-02 16:29N 48°25' W 123°23'0 0.0
2017-Oct-02 15:59N 48°25' W 123°23'0 0.0
2017-Oct-02 15:29N 48°25' W 123°23'0 0.0
2017-Oct-02 15:00N 48°25' W 123°23'1 2.0
2017-Oct-02 14:30N 48°25' W 123°25'510.6
2017-Oct-02 14:00N 48°19' W 123°25'713.3
2017-Oct-02 13:30N 48°13' W 123°30'713.2
2017-Oct-02 13:00N 48°13' W 123°40'612.9
2017-Oct-02 12:30N 48°13' W 123°49'712.6
2017-Oct-02 11:59N 48°15' W 123°59'612.9
2017-Oct-02 11:30N 48°17' W 124°08'613.1
2017-Oct-02 11:00N 48°20' W 124°16'713.4
2017-Oct-02 10:30N 48°23' W 124°25'713.5
2017-Oct-02 10:00N 48°26' W 124°35'713.2
2017-Oct-02 09:30N 48°28' W 124°44'713.8
2017-Oct-02 09:00N 48°29' W 124°54'714.4
2017-Oct-02 08:30N 48°29' W 125°05'714.2
2017-Oct-02 08:00N 48°30' W 125°15'714.0
2017-Oct-02 07:30N 48°33' W 125°25'714.0
2017-Oct-02 07:00N 48°36' W 125°35'714.4
2017-Oct-02 06:30N 48°40' W 125°43'612.9
2017-Oct-02 06:01N 48°44' W 125°51'713.7
2017-Oct-02 05:31N 48°48' W 126°00'714.1
2017-Oct-02 05:01N 48°52' W 126°09'714.5
2017-Oct-02 04:31N 48°57' W 126°17'917.0
2017-Oct-02 04:01N 49°01' W 126°28'918.2
2017-Oct-02 03:30N 49°07' W 126°39'918.3
2017-Oct-02 03:01N 49°12' W 126°50'918.2
2017-Oct-02 02:31N 49°18' W 127°01'918.3
2017-Oct-02 02:01N 49°24' W 127°12'918.0
2017-Oct-02 01:30N 49°29' W 127°23'5716.1
2017-Oct-01 22:00N 50°06' W 128°30'974.8 310 / 321029.0 5.4 14.012.314.0
2017-Oct-01 21:52N 50°13' W 128°40'19818.0
2017-Oct-01 10:53N 53°12' W 130°54'1519.1
2017-Oct-01 10:06N 53°27' W 131°00'219.1
2017-Oct-01 10:00N 53°29' W 131°01'6869.2
2017-Oct-01 10:00N 53°24' W 130°54'1530.5 300 / 201027.0 11.0 7.213.0
2017-Oct-01 09:30N 53°38' W 131°02'918.7
2017-Oct-01 09:01N 53°47' W 131°03'918.8
2017-Oct-01 08:30N 53°57' W 131°03'918.8
2017-Oct-01 08:00N 54°06' W 131°04'918.7
2017-Oct-01 07:30N 54°15' W 131°04'918.6
2017-Oct-01 07:00N 54°24' W 131°09'918.7
2017-Oct-01 06:30N 54°33' W 131°15'916.9
2017-Oct-01 06:00N 54°41' W 131°12'917.7
2017-Oct-01 05:30N 54°49' W 131°05'5 9.5
2017-Oct-01 05:00N 54°54' W 131°06'118 6.2 280 / 41023.010.8 12.010.212.0
2017-Sep-30 10:00N 56°12' W 133°42'13414.5 290 / 51016.0 9.0 9.013.0
2017-Sep-30 00:45N 58°13' W 135°28'518.0
2017-Sep-30 00:28N 58°15' W 135°37'818.1
2017-Sep-30 00:00N 58°19' W 135°51'715.0
2017-Sep-29 23:30N 58°25' W 135°58'713.2
2017-Sep-29 23:00N 58°31' W 136°04'1020.4
2017-Sep-29 22:30N 58°41' W 136°06'1019.2
2017-Sep-29 22:00N 58°46' W 136°22'6 1.0
2017-Sep-29 16:08N 58°43' W 136°14'320.4
2017-Sep-29 15:59N 58°40' W 136°09'919.4
2017-Sep-29 15:30N 58°32' W 136°04'815.5
2017-Sep-29 15:00N 58°24' W 135°58'611.6
2017-Sep-29 14:31N 58°19' W 135°53'510.5
2017-Sep-29 14:00N 58°18' W 135°43'510.6
2017-Sep-29 13:30N 58°16' W 135°34'510.6
2017-Sep-29 13:01N 58°14' W 135°24'510.6
2017-Sep-29 12:30N 58°12' W 135°15'814.7
2017-Sep-29 12:00N 58°06' W 135°06'6010.1 010 / 21010.0 5.4 9.0 9.012.0
2017-Sep-29 06:00N 59°06' W 135°18'193 4.6 010 / 111011.010.8 9.0 7.110.0
2017-Sep-27 12:00N 55°54' W 134°42'3115.4 140 / 351015.0 13.011.315.0
2017-Sep-27 10:00N 55°24' W 134°30'   140 / 331015.0 2.2 13.011.315.0

Dump ship's entire track history